Time;durP1;ratioP1;P1;durP2;ratioP2;P2;SDS_P1;SDS_P2;PMS_P1;PMS_P2;Temp;Humidity;BMP_temperature;BMP_pressure;BME280_temperature;BME280_humidity;BME280_pressure;Samples;Min_cycle;Max_cycle;Signal;HPM_P1;HPM_P2
2023/10/21 00:00:29;;;;;;;0.10;0.10;;;20.80;99.90;;;;;;5079524;28;20027;-76
2023/10/21 00:02:55;;;;;;;0.63;0.50;;;20.60;99.90;;;;;;5079332;28;20274;-76
2023/10/21 00:05:21;;;;;;;0.08;0.08;;;20.40;99.90;;;;;;5079300;28;20028;-78
2023/10/21 00:07:47;;;;;;;3.13;3.03;;;20.50;99.90;;;;;;5079215;28;20024;-76
2023/10/21 00:10:13;;;;;;;0.10;0.10;;;20.30;99.90;;;;;;5061079;28;20058;-78
2023/10/21 00:12:39;;;;;;;0.10;0.10;;;20.20;99.90;;;;;;5079380;28;20016;-79
2023/10/21 00:15:06;;;;;;;0.10;0.10;;;20.10;99.90;;;;;;5078871;28;20032;-76
2023/10/21 00:17:33;;;;;;;0.20;0.20;;;20.10;99.90;;;;;;5078687;28;20026;-77
2023/10/21 00:19:59;;;;;;;0.65;0.63;;;20.10;99.90;;;;;;5079106;28;20032;-79
2023/10/21 00:22:28;;;;;;;0.52;0.52;;;20.30;99.90;;;;;;5079094;28;20012;-76
2023/10/21 00:24:54;;;;;;;0.10;0.10;;;20.40;99.90;;;;;;5078698;28;20024;-77
2023/10/21 00:27:20;;;;;;;0.10;0.10;;;20.50;99.90;;;;;;5078606;28;20020;-74
2023/10/21 00:29:46;;;;;;;0.10;0.10;;;20.40;99.90;;;;;;5078538;28;20032;-76
2023/10/21 00:32:11;;;;;;;0.10;0.10;;;20.20;99.90;;;;;;5078680;28;20101;-76
2023/10/21 00:34:40;;;;;;;0.10;0.10;;;20.20;99.90;;;;;;5078731;28;20081;-76
2023/10/21 00:37:07;;;;;;;0.10;0.10;;;20.20;99.90;;;;;;5078733;28;20034;-76
2023/10/21 00:39:37;;;;;;;3.58;3.15;;;;;;;;;;5078507;28;20045;-77
2023/10/21 00:42:06;;;;;;;12.80;3.00;;;20.50;99.90;;;;;;5078637;28;20323;-76
2023/10/21 00:44:32;;;;;;;0.10;0.10;;;20.70;99.90;;;;;;5078488;28;20016;-76
2023/10/21 00:47:01;;;;;;;1.10;1.10;;;20.50;99.90;;;;;;5078478;28;20344;-76
2023/10/21 00:49:31;;;;;;;0.10;0.10;;;20.40;99.90;;;;;;5078341;28;20235;-78
2023/10/21 00:51:58;;;;;;;1.75;1.65;;;20.50;99.90;;;;;;5078513;28;20054;-78
2023/10/21 00:54:27;;;;;;;0.10;0.10;;;20.40;99.90;;;;;;5078352;28;20077;-77
2023/10/21 00:56:56;;;;;;;0.50;0.50;;;20.50;99.90;;;;;;5078173;28;20024;-76
2023/10/21 00:59:25;;;;;;;0.10;0.10;;;20.60;99.90;;;;;;5078087;28;20071;-77
2023/10/21 01:01:51;;;;;;;8.57;1.85;;;20.70;99.90;;;;;;5078287;28;20467;-79
2023/10/21 01:04:18;;;;;;;0.10;0.10;;;20.70;99.90;;;;;;5078218;28;20232;-76
2023/10/21 01:06:44;;;;;;;1.05;1.05;;;20.70;99.90;;;;;;5078097;28;20008;-75
2023/10/21 01:09:15;;;;;;;0.13;0.13;;;20.60;99.90;;;;;;5078279;28;20044;-77
2023/10/21 01:11:41;;;;;;;0.10;0.10;;;20.70;99.90;;;;;;5078338;28;20016;-76
2023/10/21 01:14:09;;;;;;;0.45;0.45;;;20.60;99.90;;;;;;5078225;28;20073;-77
2023/10/21 01:16:35;;;;;;;0.50;0.50;;;20.90;99.90;;;;;;5059697;28;20441;-76
2023/10/21 01:19:00;;;;;;;7.57;6.80;;;21.00;99.90;;;;;;5059596;28;20040;-78
2023/10/21 01:21:26;;;;;;;0.20;0.20;;;21.00;99.90;;;;;;5077763;28;20058;-78
2023/10/21 01:23:52;;;;;;;1.02;1.02;;;21.50;99.90;;;;;;5078181;28;20344;-77
2023/10/21 01:26:18;;;;;;;0.10;0.10;;;21.00;99.90;;;;;;5077423;28;20028;-78
2023/10/21 01:28:44;;;;;;;0.52;0.52;;;21.00;99.90;;;;;;5077918;28;20097;-76
2023/10/21 01:31:10;;;;;;;4.45;3.10;;;21.00;99.90;;;;;;5077865;28;20494;-77
2023/10/21 01:33:35;;;;;;;0.50;0.50;;;21.20;99.90;;;;;;5077786;28;20131;-75
2023/10/21 01:36:01;;;;;;;0.10;0.10;;;21.30;99.90;;;;;;5077914;28;20035;-76
2023/10/21 01:38:27;;;;;;;0.10;0.10;;;21.30;99.90;;;;;;5077852;28;20197;-77
2023/10/21 01:40:53;;;;;;;0.10;0.10;;;21.20;99.90;;;;;;5077879;28;20050;-76
2023/10/21 01:43:19;;;;;;;2.50;2.40;;;20.40;99.90;;;;;;5077665;28;20674;-75
2023/10/21 01:45:45;;;;;;;0.17;0.17;;;21.20;99.90;;;;;;5078094;28;20267;-76
2023/10/21 01:48:11;;;;;;;0.10;0.10;;;21.80;99.90;;;;;;5077624;28;20016;-75
2023/10/21 01:50:37;;;;;;;0.10;0.10;;;21.20;99.90;;;;;;5077733;28;20485;-79
2023/10/21 01:53:03;;;;;;;0.10;0.10;;;21.20;99.90;;;;;;5077330;28;20034;-76
2023/10/21 01:55:28;;;;;;;0.10;0.10;;;21.10;99.90;;;;;;5077536;28;20028;-77
2023/10/21 01:57:54;;;;;;;0.85;0.45;;;21.00;99.90;;;;;;5077260;28;20415;-77
2023/10/21 02:00:20;;;;;;;1.13;1.10;;;21.00;99.90;;;;;;5077367;28;20028;-79
2023/10/21 02:02:51;;;;;;;0.10;0.10;;;21.20;99.90;;;;;;5077638;28;20794;-76
2023/10/21 02:05:17;;;;;;;0.43;0.38;;;21.20;99.90;;;;;;5077488;28;20312;-77
2023/10/21 02:07:43;;;;;;;0.10;0.10;;;21.10;99.90;;;;;;5077629;28;20027;-76
2023/10/21 02:10:09;;;;;;;0.10;0.10;;;21.40;99.90;;;;;;5077452;28;20031;-76
2023/10/21 02:12:35;;;;;;;0.10;0.10;;;21.60;99.90;;;;;;5077822;28;20047;-75
2023/10/21 02:15:01;;;;;;;0.10;0.10;;;21.80;99.90;;;;;;5077421;28;20095;-77
2023/10/21 02:17:26;;;;;;;0.10;0.10;;;21.80;99.90;;;;;;5077125;28;20746;-77
2023/10/21 02:19:56;;;;;;;0.10;0.10;;;22.00;99.90;;;;;;5077278;28;20024;-77
2023/10/21 02:22:26;;;;;;;0.10;0.10;;;21.80;99.90;;;;;;5077318;28;20016;-80
2023/10/21 02:24:53;;;;;;;0.10;0.10;;;20.90;99.90;;;;;;5077473;28;20016;-76
2023/10/21 02:27:19;;;;;;;0.10;0.10;;;21.90;99.90;;;;;;5077055;28;20274;-83
2023/10/21 02:29:45;;;;;;;0.10;0.10;;;21.90;99.90;;;;;;5077485;28;20101;-77
2023/10/21 02:32:11;;;;;;;0.38;0.38;;;21.80;99.90;;;;;;5076876;28;20317;-76
2023/10/21 02:34:37;;;;;;;0.10;0.10;;;21.80;99.90;;;;;;5077143;28;20031;-76
2023/10/21 02:37:03;;;;;;;0.08;0.08;;;21.70;99.90;;;;;;5076914;28;20028;-76
2023/10/21 02:39:29;;;;;;;0.10;0.10;;;21.60;99.90;;;;;;5079705;28;20283;-77
2023/10/21 02:41:55;;;;;;;0.10;0.10;;;21.70;99.90;;;;;;5063748;28;20114;-78
2023/10/21 02:44:21;;;;;;;0.38;0.38;;;22.10;99.90;;;;;;5082781;28;20099;-75
2023/10/21 02:46:48;;;;;;;0.10;0.10;;;22.10;99.90;;;;;;5082266;28;20016;-76
2023/10/21 02:49:14;;;;;;;1.38;1.27;;;22.20;99.90;;;;;;5082020;28;20047;-77
2023/10/21 02:51:40;;;;;;;0.75;0.75;;;22.30;99.90;;;;;;5063312;28;20073;-76
2023/10/21 02:54:10;;;;;;;0.10;0.10;;;22.30;99.90;;;;;;5081012;28;20039;-75
2023/10/21 02:56:36;;;;;;;0.10;0.10;;;22.30;99.90;;;;;;5081186;28;20027;-75
2023/10/21 02:59:02;;;;;;;2.25;2.15;;;22.40;99.90;;;;;;5081015;28;20047;-77
2023/10/21 03:01:28;;;;;;;8.70;8.30;;;22.50;99.90;;;;;;5081184;28;20016;-75
2023/10/21 03:03:55;;;;;;;0.10;0.10;;;22.40;99.90;;;;;;5081251;28;20173;-74
2023/10/21 03:06:23;;;;;;;0.10;0.10;;;22.50;99.90;;;;;;5081054;28;20377;-75
2023/10/21 03:08:49;;;;;;;0.10;0.10;;;22.50;99.90;;;;;;5080795;28;20425;-77
2023/10/21 03:11:15;;;;;;;0.10;0.10;;;22.50;99.90;;;;;;5081062;28;20020;-78
2023/10/21 03:13:41;;;;;;;2.10;2.00;;;20.50;99.90;;;;;;5080863;28;20047;-75
2023/10/21 03:16:08;;;;;;;0.10;0.10;;;22.40;99.90;;;;;;5080673;28;20027;-81
2023/10/21 03:18:35;;;;;;;0.10;0.10;;;22.40;99.90;;;;;;5080491;28;20123;-75
2023/10/21 03:21:01;;;;;;;0.10;0.10;;;22.30;99.90;;;;;;5062514;28;20323;-75
2023/10/21 03:23:27;;;;;;;0.10;0.10;;;22.30;99.90;;;;;;5080335;28;20036;-80
2023/10/21 03:25:56;;;;;;;1.30;1.20;;;22.40;99.90;;;;;;5080344;28;20262;-74
2023/10/21 03:28:23;;;;;;;1.33;1.27;;;22.40;99.90;;;;;;5080467;28;20036;-75
2023/10/21 03:30:49;;;;;;;0.10;0.10;;;22.40;99.90;;;;;;5080151;28;20024;-75
2023/10/21 03:33:15;;;;;;;0.10;0.10;;;22.50;99.90;;;;;;5080337;28;20126;-80
2023/10/21 03:35:53;;;;;;;0.20;0.20;;;22.40;99.90;;;;;;5080463;28;20012;-75
2023/10/21 03:38:20;;;;;;;0.10;0.10;;;22.50;99.90;;;;;;5079977;28;20526;-74
2023/10/21 03:40:57;;;;;;;0.10;0.10;;;22.60;99.90;;;;;;5080120;28;20072;-78
2023/10/21 03:43:25;;;;;;;8.15;2.22;;;22.50;99.90;;;;;;5080000;28;20422;-74
2023/10/21 03:45:52;;;;;;;3.25;1.45;;;22.50;99.90;;;;;;5079938;28;20020;-78
2023/10/21 03:48:17;;;;;;;0.10;0.10;;;22.50;99.90;;;;;;5079937;28;20016;-75
2023/10/21 03:50:43;;;;;;;0.10;0.10;;;22.50;99.90;;;;;;5079647;28;20077;-77
2023/10/21 03:53:09;;;;;;;0.08;0.08;;;22.50;99.90;;;;;;5080173;28;20454;-74
2023/10/21 03:55:35;;;;;;;0.10;0.10;;;22.50;99.90;;;;;;5080226;28;20020;-76
2023/10/21 03:58:01;;;;;;;0.20;0.20;;;22.50;99.90;;;;;;5079888;28;20024;-75
2023/10/21 04:00:27;;;;;;;0.10;0.10;;;22.60;99.90;;;;;;5061741;28;20135;-81
2023/10/21 04:02:53;;;;;;;4.32;0.98;;;22.50;99.90;;;;;;5080691;28;20375;-85
2023/10/21 04:05:18;;;;;;;5.32;2.92;;;22.40;99.90;;;;;;5080380;28;20220;-74
2023/10/21 04:07:45;;;;;;;13.25;2.90;;;22.50;99.90;;;;;;5080297;28;20075;-80
2023/10/21 04:10:11;;;;;;;2.67;2.47;;;22.50;99.90;;;;;;5080427;28;20024;-78
2023/10/21 04:12:39;;;;;;;0.95;0.93;;;22.50;99.90;;;;;;5079706;28;20054;-76
2023/10/21 04:15:07;;;;;;;0.10;0.10;;;22.40;99.90;;;;;;5079842;28;20216;-75
2023/10/21 04:17:33;;;;;;;0.17;0.17;;;22.40;99.90;;;;;;5079600;28;20331;-75
2023/10/21 04:19:59;;;;;;;4.00;1.23;;;22.50;99.90;;;;;;5079881;28;20032;-74
2023/10/21 04:22:25;;;;;;;5.78;4.07;;;22.60;99.70;;;;;;5079778;28;20092;-74
2023/10/21 04:24:51;;;;;;;0.10;0.10;;;22.50;99.90;;;;;;5079323;28;20612;-74
2023/10/21 04:27:17;;;;;;;3.95;2.72;;;22.50;99.80;;;;;;5080863;28;20477;-75
2023/10/21 04:29:43;;;;;;;0.10;0.10;;;22.50;99.70;;;;;;5082307;28;20105;-75
2023/10/21 04:32:08;;;;;;;2.75;0.95;;;22.50;99.90;;;;;;5081155;28;20340;-78
2023/10/21 04:34:34;;;;;;;0.10;0.10;;;22.40;99.70;;;;;;5081743;28;20024;-74
2023/10/21 04:37:00;;;;;;;1.02;1.02;;;22.40;99.90;;;;;;5081619;28;20043;-76
2023/10/21 04:39:28;;;;;;;0.10;0.10;;;22.40;99.90;;;;;;5081240;28;20020;-81
2023/10/21 04:41:54;;;;;;;3.80;3.30;;;22.30;99.90;;;;;;5080443;28;20039;-80
2023/10/21 04:44:20;;;;;;;0.35;0.35;;;22.30;99.90;;;;;;5079206;28;20067;-76
2023/10/21 04:46:46;;;;;;;0.30;0.30;;;22.30;99.90;;;;;;5079529;28;20050;-75
2023/10/21 04:49:13;;;;;;;0.25;0.25;;;22.30;99.90;;;;;;5079197;28;20028;-74
2023/10/21 04:51:42;;;;;;;0.10;0.10;;;22.30;99.90;;;;;;5079615;28;20031;-76
2023/10/21 04:54:08;;;;;;;9.88;9.32;;;22.20;99.90;;;;;;5078740;28;20024;-75
2023/10/21 04:56:34;;;;;;;0.50;0.50;;;22.20;99.80;;;;;;5078364;28;20417;-74
2023/10/21 04:59:00;;;;;;;0.10;0.10;;;22.20;99.70;;;;;;5078570;28;20058;-74
2023/10/21 05:01:26;;;;;;;0.57;0.57;;;22.20;99.90;;;;;;5078102;28;20047;-76
2023/10/21 05:03:51;;;;;;;6.32;5.68;;;22.20;99.90;;;;;;5060182;28;20320;-76
2023/10/21 05:06:17;;;;;;;0.47;0.47;;;22.10;99.90;;;;;;5078962;28;20144;-76
2023/10/21 05:08:43;;;;;;;8.18;7.38;;;22.20;99.90;;;;;;5079422;28;20062;-75
2023/10/21 05:11:09;;;;;;;0.10;0.10;;;22.20;99.90;;;;;;5061338;28;20012;-75
2023/10/21 05:13:35;;;;;;;0.10;0.10;;;22.20;99.90;;;;;;5080003;28;20019;-78
2023/10/21 05:16:00;;;;;;;7.07;6.43;;;22.20;99.90;;;;;;5078482;28;20031;-74
2023/10/21 05:18:26;;;;;;;0.10;0.10;;;22.10;99.90;;;;;;5079632;28;20031;-76
2023/10/21 05:20:52;;;;;;;1.55;1.45;;;22.20;99.90;;;;;;5080294;28;20028;-73
2023/10/21 05:23:18;;;;;;;16.83;15.38;;;22.20;99.90;;;;;;5079013;28;20103;-74
2023/10/21 05:25:44;;;;;;;9.02;1.65;;;22.20;99.90;;;;;;5079602;28;20024;-74
2023/10/21 05:28:10;;;;;;;0.10;0.10;;;22.20;99.90;;;;;;5078674;28;20342;-79
2023/10/21 05:30:37;;;;;;;1.40;1.30;;;22.30;99.90;;;;;;5078524;28;20591;-75
2023/10/21 05:33:04;;;;;;;0.10;0.10;;;22.40;99.90;;;;;;5077980;28;20561;-76
2023/10/21 05:35:30;;;;;;;14.70;3.30;;;22.40;99.90;;;;;;5078103;28;20020;-75
2023/10/21 05:37:56;;;;;;;0.10;0.10;;;22.30;99.90;;;;;;5078128;28;20044;-74
2023/10/21 05:40:21;;;;;;;1.65;1.55;;;22.20;99.90;;;;;;5059806;28;20395;-74
2023/10/21 05:42:47;;;;;;;0.68;0.68;;;22.30;99.90;;;;;;5077808;28;20182;-76
2023/10/21 05:45:13;;;;;;;22.80;1.95;;;22.30;99.90;;;;;;5077936;28;20537;-75
2023/10/21 05:47:39;;;;;;;1.45;1.45;;;22.40;99.90;;;;;;5077756;28;20095;-75
2023/10/21 05:50:06;;;;;;;0.50;0.50;;;22.30;99.90;;;;;;5077646;28;20024;-77
2023/10/21 05:52:34;;;;;;;0.10;0.10;;;22.30;99.90;;;;;;5079058;28;20077;-74
2023/10/21 05:55:04;;;;;;;19.48;2.58;;;22.40;99.90;;;;;;5078977;28;20020;-74
2023/10/21 05:57:30;;;;;;;0.90;0.90;;;22.40;99.90;;;;;;5078474;28;20020;-73
2023/10/21 05:59:56;;;;;;;0.20;0.20;;;22.40;99.90;;;;;;5059525;28;20051;-78
2023/10/21 06:02:21;;;;;;;0.10;0.10;;;22.40;99.70;;;;;;5077602;28;20091;-75
2023/10/21 06:04:50;;;;;;;10.88;3.30;;;22.00;99.80;;;;;;5077803;28;20032;-80
2023/10/21 06:07:16;;;;;;;0.10;0.10;;;22.50;99.90;;;;;;5077422;28;20028;-76
2023/10/21 06:09:42;;;;;;;0.35;0.35;;;22.50;99.90;;;;;;5077373;28;20490;-75
2023/10/21 06:12:08;;;;;;;0.40;0.40;;;22.50;99.50;;;;;;5059095;28;20040;-76
2023/10/21 06:14:34;;;;;;;9.80;3.85;;;22.50;99.60;;;;;;5077264;28;20316;-80
2023/10/21 06:16:59;;;;;;;0.10;0.10;;;22.50;99.80;;;;;;5077342;28;20165;-81
2023/10/21 06:19:25;;;;;;;0.20;0.20;;;22.60;99.40;;;;;;5077243;28;20660;-74
2023/10/21 06:21:51;;;;;;;0.10;0.10;;;22.60;99.40;;;;;;5058692;28;20029;-74
2023/10/21 06:24:17;;;;;;;0.10;0.10;;;22.50;99.30;;;;;;5077508;28;20316;-75
2023/10/21 06:26:46;;;;;;;0.10;0.10;;;23.30;99.70;;;;;;5077029;28;20024;-76
2023/10/21 06:29:11;;;;;;;12.27;3.20;;;22.30;99.20;;;;;;5077704;28;20028;-80
2023/10/21 06:31:37;;;;;;;0.85;0.85;;;22.80;99.40;;;;;;5077427;28;20035;-75
2023/10/21 06:34:03;;;;;;;0.10;0.10;;;22.80;99.60;;;;;;5077518;28;20106;-78
2023/10/21 06:36:33;;;;;;;0.20;0.20;;;22.60;99.10;;;;;;5077201;28;20406;-74
2023/10/21 06:38:59;;;;;;;0.10;0.10;;;23.00;99.20;;;;;;5058613;28;20032;-74
2023/10/21 06:41:25;;;;;;;2.65;1.65;;;23.00;99.10;;;;;;5058854;28;20016;-74
2023/10/21 06:43:54;;;;;;;0.10;0.10;;;23.00;99.00;;;;;;5077484;28;20031;-75
2023/10/21 06:46:20;;;;;;;0.10;0.10;;;23.00;99.20;;;;;;5077183;28;20024;-74
2023/10/21 06:48:45;;;;;;;5.07;3.10;;;23.00;99.90;;;;;;5077073;28;20028;-74
2023/10/21 06:51:13;;;;;;;0.30;0.30;;;23.00;99.70;;;;;;5077054;28;20240;-80
2023/10/21 06:53:38;;;;;;;0.10;0.10;;;22.50;99.80;;;;;;5077239;28;20027;-77
2023/10/21 06:56:10;;;;;;;0.40;0.40;;;23.10;99.80;;;;;;5077572;28;20016;-77
2023/10/21 06:58:36;;;;;;;0.00;0.00;;;23.00;99.90;;;;;;5077433;28;20040;-76
2023/10/21 07:01:03;;;;;;;0.20;0.20;;;23.00;99.90;;;;;;5076896;28;20532;-76
2023/10/21 07:03:29;;;;;;;0.10;0.10;;;23.10;99.90;;;;;;5077354;28;20129;-80
2023/10/21 07:05:55;;;;;;;0.10;0.10;;;23.10;99.90;;;;;;5077173;28;20107;-75
2023/10/21 07:08:23;;;;;;;6.22;1.40;;;23.10;99.90;;;;;;5077072;28;20384;-81
2023/10/21 07:10:49;;;;;;;0.10;0.10;;;23.20;99.90;;;;;;5077027;28;20031;-78
2023/10/21 07:13:15;;;;;;;0.20;0.20;;;23.20;99.90;;;;;;5076871;28;20016;-74
2023/10/21 07:15:40;;;;;;;0.30;0.30;;;23.30;99.90;;;;;;5077013;28;20430;-81
2023/10/21 07:18:07;;;;;;;0.10;0.10;;;23.30;99.90;;;;;;5077391;28;20665;-77
2023/10/21 07:20:36;;;;;;;0.10;0.10;;;23.20;99.90;;;;;;5077076;28;20028;-77
2023/10/21 07:23:02;;;;;;;0.30;0.30;;;23.30;99.90;;;;;;5077214;28;20108;-77
2023/10/21 07:25:28;;;;;;;0.10;0.10;;;23.30;99.90;;;;;;5079682;28;20235;-79
2023/10/21 07:27:54;;;;;;;1.38;1.27;;;23.40;99.90;;;;;;5080442;28;20016;-76
2023/10/21 07:30:23;;;;;;;0.20;0.20;;;23.40;99.90;;;;;;5080635;28;20406;-75
2023/10/21 07:32:49;;;;;;;0.10;0.10;;;23.50;99.90;;;;;;5080499;28;20221;-83
2023/10/21 07:35:16;;;;;;;1.25;1.25;;;21.40;99.60;;;;;;5080813;28;20107;-76
2023/10/21 07:37:44;;;;;;;0.10;0.10;;;23.90;99.90;;;;;;5080468;28;20038;-76
2023/10/21 07:40:10;;;;;;;0.10;0.10;;;23.80;99.90;;;;;;5080505;28;20323;-76
2023/10/21 07:42:37;;;;;;;0.10;0.10;;;23.80;99.90;;;;;;5080179;28;20012;-76
2023/10/21 07:45:06;;;;;;;0.45;0.45;;;23.90;99.70;;;;;;5080115;28;20038;-76
2023/10/21 07:47:37;;;;;;;1.55;1.48;;;23.60;99.30;;;;;;5061752;28;20107;-75
2023/10/21 07:50:07;;;;;;;4.10;2.83;;;24.00;99.40;;;;;;5080206;28;20024;-74
2023/10/21 07:52:36;;;;;;;0.17;0.17;;;23.40;99.40;;;;;;5079965;28;20030;-74
2023/10/21 07:55:03;;;;;;;0.10;0.10;;;21.80;98.80;;;;;;5080384;28;20215;-79
2023/10/21 07:57:30;;;;;;;0.00;0.00;;;23.60;99.80;;;;;;5079785;28;20035;-76
2023/10/21 08:00:00;;;;;;;1.65;1.55;;;23.60;99.30;;;;;;5079659;28;20039;-75
2023/10/21 08:02:26;;;;;;;0.10;0.10;;;23.50;99.90;;;;;;5079611;28;20043;-75
2023/10/21 08:04:52;;;;;;;0.43;0.43;;;23.40;99.90;;;;;;5079882;28;20103;-80
2023/10/21 08:07:19;;;;;;;0.17;0.17;;;23.40;99.90;;;;;;5080091;28;20017;-76
2023/10/21 08:09:45;;;;;;;0.22;0.22;;;23.30;99.90;;;;;;5061360;28;20031;-75
2023/10/21 08:12:11;;;;;;;0.55;0.47;;;23.40;99.90;;;;;;5080004;28;20024;-75
2023/10/21 08:14:40;;;;;;;0.10;0.10;;;23.50;99.90;;;;;;5081062;28;20054;-74
2023/10/21 08:17:07;;;;;;;0.10;0.10;;;21.60;99.90;;;;;;5080627;28;20038;-75
2023/10/21 08:19:33;;;;;;;0.10;0.10;;;23.40;99.90;;;;;;5081205;28;20041;-80
2023/10/21 08:22:00;;;;;;;0.10;0.10;;;23.30;99.90;;;;;;5079452;28;20103;-76
2023/10/21 08:24:27;;;;;;;0.70;0.70;;;23.10;99.90;;;;;;5079202;28;20315;-80
2023/10/21 08:26:53;;;;;;;0.10;0.10;;;22.50;99.90;;;;;;5079080;28;20028;-76
2023/10/21 08:29:20;;;;;;;0.10;0.10;;;22.70;99.90;;;;;;5080253;28;20032;-78
2023/10/21 08:31:47;;;;;;;1.50;0.88;;;21.80;99.90;;;;;;5080053;28;20037;-77
2023/10/21 08:34:13;;;;;;;0.13;0.13;;;22.40;99.90;;;;;;5080070;28;20020;-76
2023/10/21 08:36:39;;;;;;;0.10;0.10;;;22.20;99.90;;;;;;5078841;28;20468;-76
2023/10/21 08:39:07;;;;;;;3.35;3.25;;;22.00;99.90;;;;;;5079158;28;20410;-76
2023/10/21 08:41:38;;;;;;;0.10;0.10;;;21.80;99.90;;;;;;5078955;28;20013;-80
2023/10/21 08:44:07;;;;;;;0.10;0.10;;;21.40;99.90;;;;;;5079241;28;20069;-78
2023/10/21 08:46:34;;;;;;;0.10;0.10;;;21.30;99.90;;;;;;5078737;28;20016;-76
2023/10/21 08:49:03;;;;;;;0.10;0.10;;;21.30;99.90;;;;;;5078431;28;20329;-75
2023/10/21 08:51:30;;;;;;;0.10;0.10;;;;;;;;;;5078718;28;20215;-77
2023/10/21 08:54:05;;;;;;;4.25;3.95;;;20.90;99.90;;;;;;5078523;28;20043;-76
2023/10/21 08:56:33;;;;;;;18.63;3.50;;;20.90;99.90;;;;;;5078282;28;20160;-77
2023/10/21 08:59:00;;;;;;;0.10;0.10;;;20.90;99.90;;;;;;5078493;28;20379;-77
2023/10/21 09:01:26;;;;;;;0.10;0.10;;;20.80;99.90;;;;;;5078079;28;20095;-78
2023/10/21 09:03:52;;;;;;;0.45;0.40;;;20.90;99.90;;;;;;5078293;28;20103;-79
2023/10/21 09:06:19;;;;;;;0.10;0.10;;;;;;;;;;5078404;28;20452;-79
2023/10/21 09:08:47;;;;;;;0.10;0.10;;;21.20;99.90;;;;;;5078187;28;20073;-78
2023/10/21 09:11:19;;;;;;;0.10;0.10;;;21.50;99.90;;;;;;5059612;28;20042;-80
2023/10/21 09:13:45;;;;;;;0.10;0.10;;;21.90;99.90;;;;;;5078280;28;20107;-79
2023/10/21 09:16:37;;;;;;;0.10;0.10;;;22.10;99.90;;;;;;5078059;28;20115;-78
2023/10/21 09:19:05;;;;;;;0.10;0.10;;;22.40;99.90;;;;;;5075319;28;20044;-79
2023/10/21 09:21:38;;;;;;;0.10;0.10;;;22.70;99.90;;;;;;5078279;28;20016;-78
2023/10/21 09:24:06;;;;;;;0.38;0.38;;;22.80;99.90;;;;;;5078268;28;20024;-78
2023/10/21 09:26:39;;;;;;;0.10;0.10;;;23.00;99.90;;;;;;5078089;28;20324;-78
2023/10/21 09:29:18;;;;;;;0.57;0.57;;;23.10;99.90;;;;;;5078029;28;20016;-77
2023/10/21 09:31:54;;;;;;;0.15;0.15;;;23.00;99.90;;;;;;5077881;28;20062;-78
2023/10/21 09:34:30;;;;;;;0.20;0.20;;;22.50;99.90;;;;;;5077865;28;20024;-77
2023/10/21 09:36:58;;;;;;;0.10;0.10;;;23.10;99.90;;;;;;5077971;28;20043;-78
2023/10/21 09:39:25;;;;;;;0.10;0.10;;;23.00;99.90;;;;;;5077758;28;20308;-78
2023/10/21 09:41:52;;;;;;;0.10;0.10;;;23.00;99.90;;;;;;5077836;28;20474;-78
2023/10/21 09:44:18;;;;;;;0.10;0.10;;;23.00;99.90;;;;;;5078118;28;20054;-78
2023/10/21 09:46:45;;;;;;;0.10;0.10;;;22.90;99.90;;;;;;5077613;28;20016;-78
2023/10/21 09:49:13;;;;;;;1.55;1.00;;;22.80;99.90;;;;;;5077577;28;20070;-76
2023/10/21 09:51:49;;;;;;;0.10;0.10;;;22.80;99.90;;;;;;5077740;28;20579;-77
2023/10/21 09:54:21;;;;;;;0.45;0.45;;;22.90;99.90;;;;;;5059503;28;20020;-82
2023/10/21 09:56:50;;;;;;;0.10;0.10;;;20.80;99.90;;;;;;5077634;28;20112;-80
2023/10/21 09:59:17;;;;;;;0.20;0.20;;;23.10;99.90;;;;;;5077541;28;20037;-81
2023/10/21 10:01:44;;;;;;;0.10;0.10;;;23.10;99.90;;;;;;5077722;28;20438;-78
2023/10/21 10:04:13;;;;;;;0.20;0.20;;;23.00;99.90;;;;;;5059270;28;20134;-76
2023/10/21 10:06:39;;;;;;;1.45;1.40;;;22.90;99.90;;;;;;5077477;28;20220;-77
2023/10/21 10:09:07;;;;;;;0.10;0.10;;;22.20;99.90;;;;;;5077477;28;20012;-81
2023/10/21 10:11:36;;;;;;;0.10;0.10;;;22.80;99.90;;;;;;5077397;28;20013;-78
2023/10/21 10:14:02;;;;;;;19.17;3.30;;;23.20;99.90;;;;;;5077582;28;20296;-76
2023/10/21 10:16:29;;;;;;;0.00;0.00;;;23.50;99.90;;;;;;5077498;28;20023;-80
2023/10/21 10:18:58;;;;;;;0.38;0.35;;;;;;;;;;5077686;28;20085;-76
2023/10/21 10:21:24;;;;;;;0.10;0.10;;;24.00;99.90;;;;;;5077391;28;20361;-75
2023/10/21 10:23:52;;;;;;;0.10;0.10;;;24.10;99.90;;;;;;5077739;28;20297;-76
2023/10/21 10:26:51;;;;;;;4.93;4.47;;;24.40;99.90;;;;;;5077959;28;20446;-75
2023/10/21 10:29:24;;;;;;;0.10;0.10;;;24.40;99.90;;;;;;5014747;28;20615;-74
2023/10/21 10:32:10;;;;;;;0.17;0.17;;;24.30;99.30;;;;;;5014897;28;20041;-74
2023/10/21 10:34:48;;;;;;;2.17;0.55;;;24.30;99.90;;;;;;5014330;28;20052;-74
2023/10/21 10:37:37;;;;;;;0.10;0.10;;;24.20;99.30;;;;;;5014183;28;20017;-75
2023/10/21 10:40:19;;;;;;;0.28;0.28;;;24.50;99.90;;;;;;5014011;28;20044;-77
2023/10/21 10:42:45;;;;;;;5.78;3.33;;;24.00;99.40;;;;;;5014281;28;20018;-77
2023/10/21 10:45:11;;;;;;;0.90;0.90;;;23.90;98.60;;;;;;5014373;28;20141;-76
2023/10/21 10:47:40;;;;;;;0.38;0.38;;;23.80;98.20;;;;;;5014371;28;20732;-77
2023/10/21 10:50:19;;;;;;;0.10;0.10;;;23.80;97.30;;;;;;5014465;28;20111;-77
2023/10/21 10:52:46;;;;;;;0.10;0.10;;;23.20;97.50;;;;;;5014147;28;20669;-77
2023/10/21 10:55:12;;;;;;;0.10;0.10;;;24.30;97.60;;;;;;5013953;28;20404;-77
2023/10/21 10:57:38;;;;;;;2.75;2.53;;;23.60;96.40;;;;;;5013972;28;20096;-77
2023/10/21 11:00:10;;;;;;;0.10;0.10;;;23.70;96.60;;;;;;5016004;28;20559;-75
2023/10/21 11:02:45;;;;;;;0.20;0.20;;;23.60;97.30;;;;;;5018086;28;20025;-82
2023/10/21 11:05:21;;;;;;;14.82;13.65;;;23.60;96.70;;;;;;5036772;28;20032;-78
2023/10/21 11:07:50;;;;;;;33.80;2.70;;;23.50;96.10;;;;;;5080846;28;20024;-76
2023/10/21 11:10:24;;;;;;;9.07;4.38;;;23.50;95.60;;;;;;5080876;28;20111;-75
2023/10/21 11:12:51;;;;;;;0.10;0.10;;;23.60;95.00;;;;;;5080862;28;20012;-76
2023/10/21 11:15:17;;;;;;;0.10;0.10;;;23.60;95.40;;;;;;5080823;28;20027;-75
2023/10/21 11:17:47;;;;;;;0.10;0.10;;;23.70;94.80;;;;;;5080433;28;20046;-75
2023/10/21 11:20:14;;;;;;;0.10;0.10;;;23.70;94.80;;;;;;5080449;28;20032;-75
2023/10/21 11:22:41;;;;;;;0.10;0.10;;;23.80;94.60;;;;;;5062041;28;20434;-80
2023/10/21 11:25:07;;;;;;;0.20;0.20;;;23.70;94.20;;;;;;5063173;28;20046;-75
2023/10/21 11:27:34;;;;;;;0.20;0.20;;;23.70;94.10;;;;;;5080782;28;20023;-78
2023/10/21 11:30:07;;;;;;;0.28;0.28;;;23.80;93.60;;;;;;5081124;28;20119;-76
2023/10/21 11:32:34;;;;;;;0.10;0.10;;;23.80;93.90;;;;;;5084097;28;20044;-75
2023/10/21 11:35:10;;;;;;;0.10;0.10;;;23.70;94.10;;;;;;5083900;28;20089;-75
2023/10/21 11:37:39;;;;;;;5.82;5.25;;;23.60;93.70;;;;;;5084639;28;20457;-75
2023/10/21 11:40:09;;;;;;;0.10;0.10;;;23.60;94.10;;;;;;5068906;28;20476;-79
2023/10/21 11:42:37;;;;;;;0.20;0.20;;;23.60;94.00;;;;;;5081304;28;20193;-74
2023/10/21 11:45:03;;;;;;;0.55;0.55;;;23.50;93.90;;;;;;5081327;28;20020;-76
2023/10/21 11:47:30;;;;;;;0.10;0.10;;;23.60;94.00;;;;;;5081625;28;20051;-75
2023/10/21 11:49:58;;;;;;;0.10;0.10;;;23.50;94.60;;;;;;5062561;28;20036;-78
2023/10/21 11:52:27;;;;;;;0.17;0.17;;;23.50;95.00;;;;;;5080967;28;20031;-76
2023/10/21 12:27:41;;;;;;;0.10;0.10;;;24.00;93.20;;;;;;5079109;28;20020;-74
2023/10/21 12:38:22;;;;;;;3.95;2.97;;;23.90;92.60;;;;;;4996249;28;20110;-74
2023/10/21 12:43:36;;;;;;;0.10;0.10;;;24.00;91.60;;;;;;4996263;28;20631;-75
2023/10/21 12:46:25;;;;;;;0.20;0.20;;;24.20;91.60;;;;;;4996417;28;20026;-79
2023/10/21 12:48:52;;;;;;;2.10;2.03;;;24.10;92.10;;;;;;4995907;28;20115;-76
2023/10/21 12:51:22;;;;;;;0.10;0.10;;;24.10;91.80;;;;;;4996191;28;20275;-77
2023/10/21 12:53:49;;;;;;;2.55;0.90;;;24.10;91.90;;;;;;4996227;28;20346;-77
2023/10/21 12:56:15;;;;;;;4.80;2.70;;;24.20;91.40;;;;;;4996641;28;20045;-74
2023/10/21 12:58:42;;;;;;;0.45;0.45;;;23.50;92.00;;;;;;4996225;28;20050;-74
2023/10/21 13:01:15;;;;;;;0.15;0.15;;;23.80;91.40;;;;;;4996794;28;20411;-75
2023/10/21 13:03:42;;;;;;;0.03;0.03;;;24.00;92.00;;;;;;4996316;28;20492;-74
2023/10/21 13:06:12;;;;;;;0.17;0.17;;;24.00;91.50;;;;;;4997091;28;20041;-74
2023/10/21 13:08:38;;;;;;;0.77;0.77;;;24.10;91.50;;;;;;4997051;28;20045;-77
2023/10/21 13:11:05;;;;;;;0.10;0.10;;;24.10;92.20;;;;;;5079974;28;20478;-75
2023/10/21 13:13:35;;;;;;;0.00;0.00;;;24.20;91.60;;;;;;5079533;28;20289;-75
2023/10/21 13:16:03;;;;;;;0.10;0.10;;;24.30;91.10;;;;;;5060083;28;20107;-75
2023/10/21 13:18:33;;;;;;;0.10;0.10;;;24.60;91.10;;;;;;5078035;28;20028;-74
2023/10/21 13:20:59;;;;;;;0.05;0.05;;;24.50;90.60;;;;;;5078124;28;20443;-77
2023/10/21 13:23:25;;;;;;;0.10;0.10;;;24.30;90.40;;;;;;5077807;28;20043;-73
2023/10/21 13:25:51;;;;;;;0.10;0.10;;;24.40;90.40;;;;;;5078096;28;20078;-75
2023/10/21 13:28:18;;;;;;;0.10;0.10;;;24.30;90.90;;;;;;5059271;28;20487;-74
2023/10/21 13:30:47;;;;;;;0.30;0.30;;;24.10;91.60;;;;;;5078066;28;20411;-76
2023/10/21 13:33:14;;;;;;;0.10;0.10;;;24.00;91.80;;;;;;5059198;28;20044;-79